Normandy, TN (37360)

4:00 AM CDT on September 27, 2016 (GMT -0500)
Tullahoma TN - Wilson Avenue | | Change Station

Elev 1070 ft 35.36 °N, 86.24 °W | Updated 14 seconds ago

Overcast
Overcast
63.0 °F
Feels Like 63.0 °F
N
1.3
Wind Variable Wind from NNE
Gusts 2.5 mph

Today
High -- | Low -- °F
--% Chance of Precip.
Yesterday
High -- | Low -- °F
Precip. -- in
Pressure 30.04 in
Visibility 10.0 miles
Clouds Overcast 3400 ft
Dew Point 61 °F
Humidity 92%
Rainfall 0.00 in
Snow Depth Not available.
6:37 AM 6:33 PM
Waning Crescent, 13% visible
METAR KTHA 270855Z AUTO 02007KT 10SM OVC034 16/14 A3004 RMK
Pressure 30.04 in
Visibility 10.0 miles
Clouds Overcast 3400 ft
Dew Point 61 °F
Humidity 92%
Rainfall 0.00 in
Snow Depth Not available.
6:37 AM 6:33 PM
Waning Crescent, 13% visible
METAR KTHA 270855Z AUTO 02007KT 10SM OVC034 16/14 A3004 RMK

10-Day Weather Forecast

Almanac

Astronomy

Sep. 27, 2016 Rise Set
Actual Time
Civil Twilight
Nautical Twilight
Astronomical Twilight
Moon
Length of Visible Light
Length of Day
Tomorrow will be .
, % of the Moon is Illuminated

Today's Extremes

State Highs State Lows

Community

WunderPhotos

Upload Photos

1,942,040 photos uploaded!

WunderBlog® & News

Nearby

Air Quality

  Air Quality AQ Index Pollutant
Not available.

Snow Depth

Station Depth Elevation

Earthquake Activity

City Distance Mag. Time & Date
Minimum magnitude displayed is 2.5.

Coastal Water Temperatures

Place Temperature

Stations

Nearby Weather Stations

Station Location Temp. Windchill Dew Point Humidity Wind Precip. Elev Updated Type
                   

Watches & Warnings

There are currently no watches in effect.